sensor_id;sensor_type;location;lat;lon;timestamp;pressure;altitude;pressure_sealevel;temperature;humidity
59274;BME280;45044;41.572;24.730;2023-05-07T00:00:31;91593.94;;;9.58;100.00
59274;BME280;45044;41.572;24.730;2023-05-07T00:03:00;91592.84;;;9.59;100.00
59274;BME280;45044;41.572;24.730;2023-05-07T00:05:28;91586.03;;;9.54;100.00
59274;BME280;45044;41.572;24.730;2023-05-07T00:07:55;91581.13;;;9.49;100.00
59274;BME280;45044;41.572;24.730;2023-05-07T00:10:24;91586.16;;;9.65;100.00
59274;BME280;45044;41.572;24.730;2023-05-07T00:12:51;91586.97;;;9.73;100.00
59274;BME280;45044;41.572;24.730;2023-05-07T00:15:18;91588.91;;;9.80;100.00
59274;BME280;45044;41.572;24.730;2023-05-07T00:17:45;91584.50;;;9.88;100.00
59274;BME280;45044;41.572;24.730;2023-05-07T00:20:12;91582.22;;;9.86;100.00
59274;BME280;45044;41.572;24.730;2023-05-07T00:22:39;91581.16;;;9.94;100.00
59274;BME280;45044;41.572;24.730;2023-05-07T00:25:05;91581.91;;;9.91;100.00
59274;BME280;45044;41.572;24.730;2023-05-07T00:27:32;91577.78;;;9.90;100.00
59274;BME280;45044;41.572;24.730;2023-05-07T00:29:59;91590.38;;;9.74;100.00
59274;BME280;45044;41.572;24.730;2023-05-07T00:32:25;91590.56;;;9.54;100.00
59274;BME280;45044;41.572;24.730;2023-05-07T00:34:53;91586.88;;;9.62;100.00
59274;BME280;45044;41.572;24.730;2023-05-07T00:37:19;91589.59;;;9.73;100.00
59274;BME280;45044;41.572;24.730;2023-05-07T00:39:46;91589.72;;;9.84;100.00
59274;BME280;45044;41.572;24.730;2023-05-07T00:42:13;91588.25;;;9.87;100.00
59274;BME280;45044;41.572;24.730;2023-05-07T00:44:41;91578.47;;;9.87;100.00
59274;BME280;45044;41.572;24.730;2023-05-07T00:47:08;91577.03;;;9.93;100.00
59274;BME280;45044;41.572;24.730;2023-05-07T00:49:39;91574.78;;;9.92;100.00
59274;BME280;45044;41.572;24.730;2023-05-07T00:52:11;91578.41;;;9.80;100.00
59274;BME280;45044;41.572;24.730;2023-05-07T00:54:41;91578.41;;;9.80;100.00
59274;BME280;45044;41.572;24.730;2023-05-07T00:57:11;91581.31;;;9.67;100.00
59274;BME280;45044;41.572;24.730;2023-05-07T00:59:38;91580.59;;;9.36;100.00
59274;BME280;45044;41.572;24.730;2023-05-07T01:02:07;91582.94;;;9.41;100.00
59274;BME280;45044;41.572;24.730;2023-05-07T01:04:34;91579.59;;;9.44;100.00
59274;BME280;45044;41.572;24.730;2023-05-07T01:07:02;91571.72;;;9.44;100.00
59274;BME280;45044;41.572;24.730;2023-05-07T01:09:29;91577.56;;;9.68;100.00
59274;BME280;45044;41.572;24.730;2023-05-07T01:11:57;91581.75;;;9.77;100.00
59274;BME280;45044;41.572;24.730;2023-05-07T01:14:25;91588.13;;;9.72;100.00
59274;BME280;45044;41.572;24.730;2023-05-07T01:16:52;91581.31;;;9.67;100.00
59274;BME280;45044;41.572;24.730;2023-05-07T01:19:20;91569.69;;;9.68;100.00
59274;BME280;45044;41.572;24.730;2023-05-07T01:21:48;91567.00;;;9.61;100.00
59274;BME280;45044;41.572;24.730;2023-05-07T01:24:15;91563.94;;;9.55;100.00
59274;BME280;45044;41.572;24.730;2023-05-07T01:26:43;91563.13;;;9.48;100.00
59274;BME280;45044;41.572;24.730;2023-05-07T01:29:13;91555.81;;;9.30;100.00
59274;BME280;45044;41.572;24.730;2023-05-07T01:31:41;91560.63;;;9.24;100.00
59274;BME280;45044;41.572;24.730;2023-05-07T01:34:10;91551.81;;;9.09;100.00
59274;BME280;45044;41.572;24.730;2023-05-07T01:36:39;91554.78;;;9.04;100.00
59274;BME280;45044;41.572;24.730;2023-05-07T01:39:08;91553.03;;;9.15;100.00
59274;BME280;45044;41.572;24.730;2023-05-07T01:41:37;91554.28;;;9.29;100.00
59274;BME280;45044;41.572;24.730;2023-05-07T01:44:05;91559.94;;;9.31;100.00
59274;BME280;45044;41.572;24.730;2023-05-07T01:46:33;91563.59;;;9.22;100.00
59274;BME280;45044;41.572;24.730;2023-05-07T01:49:01;91556.84;;;9.21;100.00
59274;BME280;45044;41.572;24.730;2023-05-07T01:51:27;91555.25;;;9.13;100.00
59274;BME280;45044;41.572;24.730;2023-05-07T01:53:54;91563.44;;;9.08;100.00
59274;BME280;45044;41.572;24.730;2023-05-07T01:56:21;91561.59;;;8.78;100.00
59274;BME280;45044;41.572;24.730;2023-05-07T01:58:48;91556.16;;;8.63;100.00
59274;BME280;45044;41.572;24.730;2023-05-07T02:01:15;91556.41;;;8.54;100.00
59274;BME280;45044;41.572;24.730;2023-05-07T02:03:42;91551.66;;;8.63;100.00
59274;BME280;45044;41.572;24.730;2023-05-07T02:06:09;91554.88;;;8.80;100.00
59274;BME280;45044;41.572;24.730;2023-05-07T02:08:36;91550.19;;;8.66;100.00
59274;BME280;45044;41.572;24.730;2023-05-07T02:11:03;91535.03;;;8.52;100.00
59274;BME280;45044;41.572;24.730;2023-05-07T02:13:32;91540.22;;;8.48;100.00
59274;BME280;45044;41.572;24.730;2023-05-07T02:15:59;91537.28;;;8.54;100.00
59274;BME280;45044;41.572;24.730;2023-05-07T02:18:26;91537.00;;;8.59;100.00
59274;BME280;45044;41.572;24.730;2023-05-07T02:20:53;91552.81;;;8.66;100.00
59274;BME280;45044;41.572;24.730;2023-05-07T02:23:20;91533.53;;;8.55;100.00
59274;BME280;45044;41.572;24.730;2023-05-07T02:25:46;91542.53;;;8.54;100.00
59274;BME280;45044;41.572;24.730;2023-05-07T02:28:13;91547.63;;;8.43;100.00
59274;BME280;45044;41.572;24.730;2023-05-07T02:30:40;91542.16;;;8.55;100.00
59274;BME280;45044;41.572;24.730;2023-05-07T02:33:07;91546.25;;;8.53;100.00
59274;BME280;45044;41.572;24.730;2023-05-07T02:35:35;91542.44;;;8.46;100.00
59274;BME280;45044;41.572;24.730;2023-05-07T02:38:02;91540.13;;;8.41;100.00
59274;BME280;45044;41.572;24.730;2023-05-07T02:40:29;91541.22;;;8.40;100.00
59274;BME280;45044;41.572;24.730;2023-05-07T02:42:56;91542.44;;;8.46;100.00
59274;BME280;45044;41.572;24.730;2023-05-07T02:45:22;91536.94;;;8.28;100.00
59274;BME280;45044;41.572;24.730;2023-05-07T02:47:49;91541.00;;;8.25;100.00
59274;BME280;45044;41.572;24.730;2023-05-07T02:50:16;91543.94;;;8.20;100.00
59274;BME280;45044;41.572;24.730;2023-05-07T02:52:43;91540.56;;;8.20;100.00
59274;BME280;45044;41.572;24.730;2023-05-07T02:55:09;91549.56;;;8.22;100.00
59274;BME280;45044;41.572;24.730;2023-05-07T02:57:37;91538.38;;;8.25;100.00
59274;BME280;45044;41.572;24.730;2023-05-07T03:00:13;91531.91;;;8.15;100.00
59274;BME280;45044;41.572;24.730;2023-05-07T03:02:40;91542.19;;;8.28;100.00
59274;BME280;45044;41.572;24.730;2023-05-07T03:05:07;91529.91;;;8.09;100.00
59274;BME280;45044;41.572;24.730;2023-05-07T03:07:35;91541.38;;;8.24;100.00
59274;BME280;45044;41.572;24.730;2023-05-07T03:10:04;91542.44;;;8.19;100.00
59274;BME280;45044;41.572;24.730;2023-05-07T03:12:31;91532.84;;;8.03;100.00
59274;BME280;45044;41.572;24.730;2023-05-07T03:14:58;91537.69;;;8.01;100.00
59274;BME280;45044;41.572;24.730;2023-05-07T03:17:25;91536.28;;;8.08;100.00
59274;BME280;45044;41.572;24.730;2023-05-07T03:19:51;91532.09;;;8.03;100.00
59274;BME280;45044;41.572;24.730;2023-05-07T03:22:18;91534.16;;;7.90;100.00
59274;BME280;45044;41.572;24.730;2023-05-07T03:24:46;91536.56;;;8.02;100.00
59274;BME280;45044;41.572;24.730;2023-05-07T03:27:13;91533.94;;;8.02;100.00
59274;BME280;45044;41.572;24.730;2023-05-07T03:29:40;91538.66;;;7.93;100.00
59274;BME280;45044;41.572;24.730;2023-05-07T03:32:06;91545.25;;;8.07;100.00
59274;BME280;45044;41.572;24.730;2023-05-07T03:34:33;91541.97;;;8.13;100.00
59274;BME280;45044;41.572;24.730;2023-05-07T03:37:00;91538.25;;;7.91;100.00
59274;BME280;45044;41.572;24.730;2023-05-07T03:39:26;91555.47;;;8.15;100.00
59274;BME280;45044;41.572;24.730;2023-05-07T03:41:53;91545.88;;;8.00;100.00
59274;BME280;45044;41.572;24.730;2023-05-07T03:44:20;91552.09;;;8.15;100.00
59274;BME280;45044;41.572;24.730;2023-05-07T03:46:47;91546.09;;;8.14;100.00
59274;BME280;45044;41.572;24.730;2023-05-07T03:49:13;91546.03;;;8.11;100.00
59274;BME280;45044;41.572;24.730;2023-05-07T03:51:40;91551.78;;;8.20;100.00
59274;BME280;45044;41.572;24.730;2023-05-07T03:54:07;91545.06;;;8.19;100.00
59274;BME280;45044;41.572;24.730;2023-05-07T03:56:34;91548.28;;;8.36;100.00
59274;BME280;45044;41.572;24.730;2023-05-07T03:59:01;91552.19;;;8.22;100.00
59274;BME280;45044;41.572;24.730;2023-05-07T04:01:28;91556.81;;;8.06;100.00
59274;BME280;45044;41.572;24.730;2023-05-07T04:03:55;91556.03;;;8.01;100.00
59274;BME280;45044;41.572;24.730;2023-05-07T04:06:22;91551.94;;;8.04;100.00
59274;BME280;45044;41.572;24.730;2023-05-07T04:08:49;91549.56;;;8.22;100.00
59274;BME280;45044;41.572;24.730;2023-05-07T04:11:16;91548.34;;;8.39;100.00
59274;BME280;45044;41.572;24.730;2023-05-07T04:13:45;91549.28;;;8.55;100.00
59274;BME280;45044;41.572;24.730;2023-05-07T04:16:12;91546.06;;;8.65;100.00
59274;BME280;45044;41.572;24.730;2023-05-07T04:18:39;91542.78;;;8.72;100.00
59274;BME280;45044;41.572;24.730;2023-05-07T04:21:14;91542.97;;;8.86;100.00
59274;BME280;45044;41.572;24.730;2023-05-07T04:23:41;91531.84;;;8.97;100.00
59274;BME280;45044;41.572;24.730;2023-05-07T04:26:08;91530.34;;;8.96;100.00
59274;BME280;45044;41.572;24.730;2023-05-07T04:28:35;91534.28;;;9.13;100.00
59274;BME280;45044;41.572;24.730;2023-05-07T04:31:02;91537.34;;;9.19;100.00
59274;BME280;45044;41.572;24.730;2023-05-07T04:33:29;91544.56;;;9.29;100.00
59274;BME280;45044;41.572;24.730;2023-05-07T04:35:55;91544.28;;;9.38;100.00
59274;BME280;45044;41.572;24.730;2023-05-07T04:38:22;91547.44;;;9.55;100.00
59274;BME280;45044;41.572;24.730;2023-05-07T04:40:49;91555.31;;;9.55;100.00
59274;BME280;45044;41.572;24.730;2023-05-07T04:43:16;91550.38;;;9.50;100.00
59274;BME280;45044;41.572;24.730;2023-05-07T04:45:43;91547.69;;;9.42;100.00
59274;BME280;45044;41.572;24.730;2023-05-07T04:48:10;91558.72;;;9.59;100.00
59274;BME280;45044;41.572;24.730;2023-05-07T04:50:37;91556.25;;;9.36;100.00
59274;BME280;45044;41.572;24.730;2023-05-07T04:53:04;91560.22;;;9.22;100.00
59274;BME280;45044;41.572;24.730;2023-05-07T04:55:31;91556.75;;;9.14;100.00
59274;BME280;45044;41.572;24.730;2023-05-07T04:57:58;91558.03;;;8.93;100.00
59274;BME280;45044;41.572;24.730;2023-05-07T05:00:24;91555.75;;;8.92;100.00
59274;BME280;45044;41.572;24.730;2023-05-07T05:02:51;91557.13;;;8.82;100.00
59274;BME280;45044;41.572;24.730;2023-05-07T05:05:18;91556.63;;;9.00;100.00
59274;BME280;45044;41.572;24.730;2023-05-07T05:07:45;91561.31;;;9.17;100.00
59274;BME280;45044;41.572;24.730;2023-05-07T05:10:12;91552.22;;;9.11;100.00
59274;BME280;45044;41.572;24.730;2023-05-07T05:12:39;91546.41;;;9.29;100.00
59274;BME280;45044;41.572;24.730;2023-05-07T05:15:06;91554.00;;;9.34;100.00
59274;BME280;45044;41.572;24.730;2023-05-07T05:17:33;91563.69;;;9.30;100.00
59274;BME280;45044;41.572;24.730;2023-05-07T05:20:01;91559.16;;;9.27;100.00
59274;BME280;45044;41.572;24.730;2023-05-07T05:22:29;91569.28;;;9.28;100.00
59274;BME280;45044;41.572;24.730;2023-05-07T05:24:57;91571.38;;;9.50;100.00
59274;BME280;45044;41.572;24.730;2023-05-07T05:27:24;91574.19;;;9.30;100.00
59274;BME280;45044;41.572;24.730;2023-05-07T05:29:50;91576.84;;;9.72;100.00
59274;BME280;45044;41.572;24.730;2023-05-07T05:32:18;91575.97;;;9.60;100.00
59274;BME280;45044;41.572;24.730;2023-05-07T05:34:44;91576.19;;;9.82;100.00
59274;BME280;45044;41.572;24.730;2023-05-07T05:37:12;91571.41;;;9.91;100.00
59274;BME280;45044;41.572;24.730;2023-05-07T05:39:38;91572.44;;;9.79;100.00
59274;BME280;45044;41.572;24.730;2023-05-07T05:42:06;91587.03;;;9.77;100.00
59274;BME280;45044;41.572;24.730;2023-05-07T05:44:32;91584.31;;;9.69;100.00
59274;BME280;45044;41.572;24.730;2023-05-07T05:46:59;91584.28;;;9.66;100.00
59274;BME280;45044;41.572;24.730;2023-05-07T05:49:26;91579.63;;;9.90;100.00
59274;BME280;45044;41.572;24.730;2023-05-07T05:51:53;91585.75;;;9.60;100.00
59274;BME280;45044;41.572;24.730;2023-05-07T05:54:19;91578.00;;;9.78;100.00
59274;BME280;45044;41.572;24.730;2023-05-07T05:56:46;91586.69;;;9.82;100.00
59274;BME280;45044;41.572;24.730;2023-05-07T05:59:13;91581.53;;;9.93;100.00
59274;BME280;45044;41.572;24.730;2023-05-07T06:01:40;91585.19;;;10.26;100.00
59274;BME280;45044;41.572;24.730;2023-05-07T06:04:07;91576.56;;;10.86;100.00
59274;BME280;45044;41.572;24.730;2023-05-07T06:06:34;91579.94;;;10.79;100.00
59274;BME280;45044;41.572;24.730;2023-05-07T06:09:00;91578.88;;;10.95;100.00
59274;BME280;45044;41.572;24.730;2023-05-07T06:11:27;91580.16;;;11.30;100.00
59274;BME280;45044;41.572;24.730;2023-05-07T06:13:55;91583.53;;;11.34;100.00
59274;BME280;45044;41.572;24.730;2023-05-07T06:16:22;91583.53;;;11.34;100.00
59274;BME280;45044;41.572;24.730;2023-05-07T06:18:48;91588.56;;;11.98;100.00
59274;BME280;45044;41.572;24.730;2023-05-07T06:21:15;91588.78;;;13.46;100.00
59274;BME280;45044;41.572;24.730;2023-05-07T06:23:42;91592.16;;;15.76;100.00
59274;BME280;45044;41.572;24.730;2023-05-07T06:26:09;91591.56;;;16.72;100.00
59274;BME280;45044;41.572;24.730;2023-05-07T06:28:36;91597.88;;;16.78;100.00
59274;BME280;45044;41.572;24.730;2023-05-07T06:31:13;91593.25;;;18.04;100.00
59274;BME280;45044;41.572;24.730;2023-05-07T06:33:39;91596.88;;;17.77;100.00
59274;BME280;45044;41.572;24.730;2023-05-07T06:36:06;91589.97;;;18.17;100.00
59274;BME280;45044;41.572;24.730;2023-05-07T06:38:33;91594.31;;;17.90;100.00
59274;BME280;45044;41.572;24.730;2023-05-07T06:41:00;91588.28;;;18.90;100.00
59274;BME280;45044;41.572;24.730;2023-05-07T06:43:27;91592.81;;;18.26;100.00
59274;BME280;45044;41.572;24.730;2023-05-07T06:45:53;91587.25;;;18.00;100.00
59274;BME280;45044;41.572;24.730;2023-05-07T06:48:20;91587.56;;;18.56;100.00
59274;BME280;45044;41.572;24.730;2023-05-07T06:50:47;91589.47;;;20.17;100.00
59274;BME280;45044;41.572;24.730;2023-05-07T06:53:13;91584.13;;;20.43;100.00
59274;BME280;45044;41.572;24.730;2023-05-07T06:55:40;91591.00;;;20.80;100.00
59274;BME280;45044;41.572;24.730;2023-05-07T06:58:08;91584.75;;;20.48;100.00
59274;BME280;45044;41.572;24.730;2023-05-07T07:00:34;91589.84;;;21.84;100.00
59274;BME280;45044;41.572;24.730;2023-05-07T07:03:01;91584.09;;;23.43;81.42
59274;BME280;45044;41.572;24.730;2023-05-07T07:05:28;91589.78;;;24.50;71.97
59274;BME280;45044;41.572;24.730;2023-05-07T07:08:05;91595.63;;;24.49;69.84
59274;BME280;45044;41.572;24.730;2023-05-07T07:10:32;91590.75;;;25.36;65.41
59274;BME280;45044;41.572;24.730;2023-05-07T07:12:58;91597.84;;;24.50;67.18
59274;BME280;45044;41.572;24.730;2023-05-07T07:15:26;91600.72;;;24.71;62.95
59274;BME280;45044;41.572;24.730;2023-05-07T07:17:52;91592.91;;;24.24;66.09
59274;BME280;45044;41.572;24.730;2023-05-07T07:20:19;91589.81;;;24.41;62.13
59274;BME280;45044;41.572;24.730;2023-05-07T07:22:46;91593.59;;;23.72;77.78
59274;BME280;45044;41.572;24.730;2023-05-07T07:25:12;91601.66;;;23.63;66.57
59274;BME280;45044;41.572;24.730;2023-05-07T07:27:39;91599.88;;;22.94;71.84
59274;BME280;45044;41.572;24.730;2023-05-07T07:30:06;91598.09;;;24.28;62.12
59274;BME280;45044;41.572;24.730;2023-05-07T07:32:34;91593.91;;;23.74;69.25
59274;BME280;45044;41.572;24.730;2023-05-07T07:35:01;91607.03;;;24.93;57.68
59274;BME280;45044;41.572;24.730;2023-05-07T07:37:29;91605.25;;;23.22;60.29
59274;BME280;45044;41.572;24.730;2023-05-07T07:39:56;91607.06;;;23.44;61.07
59274;BME280;45044;41.572;24.730;2023-05-07T07:42:23;91603.41;;;23.94;58.39
59274;BME280;45044;41.572;24.730;2023-05-07T07:44:50;91606.50;;;22.20;78.73
59274;BME280;45044;41.572;24.730;2023-05-07T07:47:16;91614.34;;;22.46;79.05
59274;BME280;45044;41.572;24.730;2023-05-07T07:49:43;91611.09;;;21.65;84.74
59274;BME280;45044;41.572;24.730;2023-05-07T07:52:10;91614.75;;;22.03;74.85
59274;BME280;45044;41.572;24.730;2023-05-07T07:54:36;91615.72;;;20.45;82.28
59274;BME280;45044;41.572;24.730;2023-05-07T07:57:09;91607.19;;;20.11;100.00
59274;BME280;45044;41.572;24.730;2023-05-07T07:59:36;91611.72;;;21.47;90.56
59274;BME280;45044;41.572;24.730;2023-05-07T08:02:03;91609.16;;;19.94;79.71
59274;BME280;45044;41.572;24.730;2023-05-07T08:04:30;91601.50;;;19.40;99.93
59274;BME280;45044;41.572;24.730;2023-05-07T08:06:59;91598.88;;;18.27;100.00
59274;BME280;45044;41.572;24.730;2023-05-07T08:09:26;91609.88;;;18.08;100.00
59274;BME280;45044;41.572;24.730;2023-05-07T08:11:53;91598.94;;;18.23;100.00
59274;BME280;45044;41.572;24.730;2023-05-07T08:14:19;91604.25;;;17.49;100.00
59274;BME280;45044;41.572;24.730;2023-05-07T08:16:46;91602.69;;;17.07;100.00
59274;BME280;45044;41.572;24.730;2023-05-07T08:19:13;91608.00;;;17.07;100.00
59274;BME280;45044;41.572;24.730;2023-05-07T08:21:40;91606.16;;;17.28;100.00
59274;BME280;45044;41.572;24.730;2023-05-07T08:24:07;91606.53;;;16.58;100.00
59274;BME280;45044;41.572;24.730;2023-05-07T08:26:33;91610.22;;;16.88;100.00
59274;BME280;45044;41.572;24.730;2023-05-07T08:29:02;91607.53;;;16.68;100.00
59274;BME280;45044;41.572;24.730;2023-05-07T08:31:29;91609.53;;;16.36;100.00
59274;BME280;45044;41.572;24.730;2023-05-07T08:33:56;91608.91;;;16.52;100.00
59274;BME280;45044;41.572;24.730;2023-05-07T08:36:24;91613.69;;;16.37;100.00
59274;BME280;45044;41.572;24.730;2023-05-07T08:38:51;91603.53;;;17.04;100.00
59274;BME280;45044;41.572;24.730;2023-05-07T08:41:18;91598.84;;;17.12;100.00
59274;BME280;45044;41.572;24.730;2023-05-07T08:43:48;91610.13;;;16.72;100.00
59274;BME280;45044;41.572;24.730;2023-05-07T08:46:21;91603.16;;;17.26;100.00
59274;BME280;45044;41.572;24.730;2023-05-07T08:48:49;91602.78;;;17.65;100.00
59274;BME280;45044;41.572;24.730;2023-05-07T08:51:18;91596.09;;;18.14;100.00
59274;BME280;45044;41.572;24.730;2023-05-07T08:53:55;91605.78;;;18.58;100.00
59274;BME280;45044;41.572;24.730;2023-05-07T08:56:22;91595.63;;;18.19;100.00
59274;BME280;45044;41.572;24.730;2023-05-07T08:58:49;91597.50;;;18.02;100.00
59274;BME280;45044;41.572;24.730;2023-05-07T09:01:16;91599.91;;;17.76;100.00
59274;BME280;45044;41.572;24.730;2023-05-07T09:03:44;91599.31;;;18.42;100.00
59274;BME280;45044;41.572;24.730;2023-05-07T09:06:12;91596.84;;;18.81;100.00
59274;BME280;45044;41.572;24.730;2023-05-07T09:08:38;91597.88;;;18.71;100.00
59274;BME280;45044;41.572;24.730;2023-05-07T09:11:05;91597.22;;;18.66;100.00
59274;BME280;45044;41.572;24.730;2023-05-07T09:13:32;91604.47;;;18.49;100.00
59274;BME280;45044;41.572;24.730;2023-05-07T09:16:09;91592.06;;;18.59;100.00
59274;BME280;45044;41.572;24.730;2023-05-07T09:18:44;91593.34;;;19.01;100.00
59274;BME280;45044;41.572;24.730;2023-05-07T09:21:15;91584.94;;;19.32;100.00
59274;BME280;45044;41.572;24.730;2023-05-07T09:23:42;91586.56;;;19.30;86.59
59274;BME280;45044;41.572;24.730;2023-05-07T09:26:09;91581.34;;;19.39;79.36
59274;BME280;45044;41.572;24.730;2023-05-07T09:28:42;91586.09;;;19.01;90.08
59274;BME280;45044;41.572;24.730;2023-05-07T09:31:10;91579.78;;;19.12;97.46
59274;BME280;45044;41.572;24.730;2023-05-07T09:33:38;91573.38;;;18.92;97.85
59274;BME280;45044;41.572;24.730;2023-05-07T09:36:07;91575.38;;;18.88;100.00
59274;BME280;45044;41.572;24.730;2023-05-07T09:38:35;91564.63;;;18.92;91.07
59274;BME280;45044;41.572;24.730;2023-05-07T09:41:07;91558.16;;;18.93;94.91
59274;BME280;45044;41.572;24.730;2023-05-07T09:43:35;91563.44;;;19.10;85.21
59274;BME280;45044;41.572;24.730;2023-05-07T09:46:14;91553.59;;;19.07;78.15
59274;BME280;45044;41.572;24.730;2023-05-07T09:48:43;91552.88;;;19.36;85.96
59274;BME280;45044;41.572;24.730;2023-05-07T09:51:28;91553.03;;;19.58;96.58
59274;BME280;45044;41.572;24.730;2023-05-07T09:53:56;91553.47;;;19.83;76.21
59274;BME280;45044;41.572;24.730;2023-05-07T09:56:24;91545.38;;;20.13;76.93
59274;BME280;45044;41.572;24.730;2023-05-07T09:58:54;91544.91;;;19.49;80.39
59274;BME280;45044;41.572;24.730;2023-05-07T10:01:24;91536.31;;;19.15;71.06
59274;BME280;45044;41.572;24.730;2023-05-07T10:03:52;91534.88;;;19.40;77.35
59274;BME280;45044;41.572;24.730;2023-05-07T10:06:20;91522.59;;;18.70;77.36
59274;BME280;45044;41.572;24.730;2023-05-07T10:08:48;91532.41;;;18.73;67.44
59274;BME280;45044;41.572;24.730;2023-05-07T10:11:16;91522.34;;;18.94;74.62
59274;BME280;45044;41.572;24.730;2023-05-07T10:13:43;91525.47;;;18.29;75.51
59274;BME280;45044;41.572;24.730;2023-05-07T10:16:10;91524.56;;;18.83;70.41
59274;BME280;45044;41.572;24.730;2023-05-07T10:18:36;91525.81;;;19.08;72.02
59274;BME280;45044;41.572;24.730;2023-05-07T10:21:11;91533.34;;;18.66;75.86
59274;BME280;45044;41.572;24.730;2023-05-07T10:23:41;91532.50;;;18.70;71.51
59274;BME280;45044;41.572;24.730;2023-05-07T10:26:12;91524.94;;;18.01;77.98
59274;BME280;45044;41.572;24.730;2023-05-07T10:28:42;91528.00;;;18.66;76.80
59274;BME280;45044;41.572;24.730;2023-05-07T10:33:51;91532.75;;;18.88;70.06
59274;BME280;45044;41.572;24.730;2023-05-07T10:36:19;91533.00;;;18.94;77.72
59274;BME280;45044;41.572;24.730;2023-05-07T10:38:48;91536.81;;;19.10;74.39
59274;BME280;45044;41.572;24.730;2023-05-07T10:41:15;91527.47;;;19.18;79.10
59274;BME280;45044;41.572;24.730;2023-05-07T10:43:45;91529.88;;;19.42;78.11
59274;BME280;45044;41.572;24.730;2023-05-07T10:46:19;91527.13;;;19.16;71.78
59274;BME280;45044;41.572;24.730;2023-05-07T10:51:35;91526.81;;;19.14;78.42
59274;BME280;45044;41.572;24.730;2023-05-07T10:56:42;91522.28;;;19.11;77.10
59274;BME280;45044;41.572;24.730;2023-05-07T11:02:03;91517.38;;;19.39;83.39
59274;BME280;45044;41.572;24.730;2023-05-07T11:04:33;91518.00;;;19.30;81.58
59274;BME280;45044;41.572;24.730;2023-05-07T11:15:07;91524.06;;;19.31;87.45
59274;BME280;45044;41.572;24.730;2023-05-07T11:17:35;91517.97;;;19.17;100.00
59274;BME280;45044;41.572;24.730;2023-05-07T11:20:19;91520.88;;;19.36;72.15
59274;BME280;45044;41.572;24.730;2023-05-07T11:22:47;91518.78;;;19.44;74.53
59274;BME280;45044;41.572;24.730;2023-05-07T11:25:17;91517.59;;;19.32;83.58
59274;BME280;45044;41.572;24.730;2023-05-07T11:27:47;91522.31;;;19.54;90.18
59274;BME280;45044;41.572;24.730;2023-05-07T11:30:17;91513.34;;;19.47;80.29
59274;BME280;45044;41.572;24.730;2023-05-07T11:32:48;91506.97;;;18.85;81.97
59274;BME280;45044;41.572;24.730;2023-05-07T11:35:15;91505.34;;;18.75;89.28
59274;BME280;45044;41.572;24.730;2023-05-07T11:37:44;91519.47;;;19.18;100.00
59274;BME280;45044;41.572;24.730;2023-05-07T11:40:11;91514.16;;;19.31;80.73
59274;BME280;45044;41.572;24.730;2023-05-07T11:42:41;91515.47;;;19.39;85.16
59274;BME280;45044;41.572;24.730;2023-05-07T11:45:09;91504.75;;;19.13;76.89
59274;BME280;45044;41.572;24.730;2023-05-07T11:47:37;91516.28;;;19.23;98.73
59274;BME280;45044;41.572;24.730;2023-05-07T11:50:07;91513.81;;;19.16;78.87
59274;BME280;45044;41.572;24.730;2023-05-07T11:52:35;91517.34;;;18.96;71.18
59274;BME280;45044;41.572;24.730;2023-05-07T11:55:02;91519.13;;;19.16;74.00
59274;BME280;45044;41.572;24.730;2023-05-07T11:57:33;91520.06;;;19.39;68.06
59274;BME280;45044;41.572;24.730;2023-05-07T12:00:05;91521.13;;;19.55;73.05
59274;BME280;45044;41.572;24.730;2023-05-07T12:02:32;91504.47;;;18.95;70.07
59274;BME280;45044;41.572;24.730;2023-05-07T12:05:01;91504.69;;;18.71;87.37
59274;BME280;45044;41.572;24.730;2023-05-07T12:07:28;91511.97;;;18.53;79.82
59274;BME280;45044;41.572;24.730;2023-05-07T12:09:56;91504.81;;;18.50;83.58
59274;BME280;45044;41.572;24.730;2023-05-07T12:12:22;91514.69;;;17.83;83.15
59274;BME280;45044;41.572;24.730;2023-05-07T12:14:49;91506.06;;;18.12;96.64
59274;BME280;45044;41.572;24.730;2023-05-07T12:17:16;91510.91;;;18.17;100.00
59274;BME280;45044;41.572;24.730;2023-05-07T12:19:44;91499.88;;;18.65;92.60
59274;BME280;45044;41.572;24.730;2023-05-07T12:22:11;91496.25;;;19.19;100.00
59274;BME280;45044;41.572;24.730;2023-05-07T12:24:47;91489.22;;;19.25;76.63
59274;BME280;45044;41.572;24.730;2023-05-07T12:27:16;91501.84;;;19.08;69.18
59274;BME280;45044;41.572;24.730;2023-05-07T12:29:46;91503.84;;;19.03;82.45
59274;BME280;45044;41.572;24.730;2023-05-07T12:32:18;91489.28;;;18.78;78.57
59274;BME280;45044;41.572;24.730;2023-05-07T12:34:45;91489.47;;;18.71;93.41
59274;BME280;45044;41.572;24.730;2023-05-07T12:37:12;91485.31;;;18.70;82.24
59274;BME280;45044;41.572;24.730;2023-05-07T12:39:49;91490.69;;;18.37;81.28
59274;BME280;45044;41.572;24.730;2023-05-07T12:42:19;91496.13;;;18.33;97.40
59274;BME280;45044;41.572;24.730;2023-05-07T12:44:50;91491.59;;;18.47;100.00
59274;BME280;45044;41.572;24.730;2023-05-07T12:47:17;91492.94;;;18.22;100.00
59274;BME280;45044;41.572;24.730;2023-05-07T12:49:44;91499.44;;;18.37;100.00
59274;BME280;45044;41.572;24.730;2023-05-07T12:52:12;91485.16;;;18.14;95.42
59274;BME280;45044;41.572;24.730;2023-05-07T12:54:39;91487.53;;;18.08;88.79
59274;BME280;45044;41.572;24.730;2023-05-07T12:57:07;91483.03;;;18.05;100.00
59274;BME280;45044;41.572;24.730;2023-05-07T12:59:41;91481.91;;;18.06;86.45
59274;BME280;45044;41.572;24.730;2023-05-07T13:02:09;91477.91;;;17.98;92.03
59274;BME280;45044;41.572;24.730;2023-05-07T13:04:36;91487.44;;;17.79;100.00
59274;BME280;45044;41.572;24.730;2023-05-07T13:07:03;91478.31;;;17.96;97.40
59274;BME280;45044;41.572;24.730;2023-05-07T13:09:31;91482.63;;;17.90;100.00